Terminal Aerodrome Forecast
Issued by NWS Dodge City, KS

Current Version | Previous Version | Text Only | Print | Product List | Glossary On
Versions: 1 2 3 4 5 6 7 8 9 10 11 12 13 14 15 16 17 18 19 20 21 22 23 24 25 26 27 28 29 30 31 32 33 34 35 36 37 38 39 40 41 42
000
FTUS43 KDDC 030819 AAA
TAFDDC
TAF AMD
KDDC 030819Z 0308/0406 22009KT P6SM BKN120
     FM030900 27009KT P6SM VCSH OVC100
     FM031500 34012G22KT P6SM SCT070
     FM040000 36009KT P6SM SKC=

USA.gov is the U.S. government's official web portal to all federal, state and local government web resources and services.